createdAt,value
2022-09-16T00:00:00.312Z,983.8
2022-09-16T00:05:00.756Z,983.6
2022-09-16T00:10:00.326Z,983.6
2022-09-16T00:15:00.334Z,983.8
2022-09-16T00:20:00.343Z,983.6
2022-09-16T00:25:00.340Z,983.6
2022-09-16T00:30:00.391Z,983.6
2022-09-16T00:35:00.352Z,983.6
2022-09-16T00:40:00.408Z,983.6
2022-09-16T00:45:00.351Z,984
2022-09-16T00:50:00.373Z,984
2022-09-16T00:55:00.850Z,984
2022-09-16T01:00:00.387Z,983.8
2022-09-16T01:05:00.381Z,983.8
2022-09-16T01:10:00.472Z,983.6
2022-09-16T01:15:00.403Z,983.6
2022-09-16T01:20:00.498Z,983.6
2022-09-16T01:25:00.391Z,983.6
2022-09-16T01:30:00.420Z,984
2022-09-16T01:35:00.413Z,984
2022-09-16T01:40:00.526Z,984
2022-09-16T01:45:00.432Z,984.3
2022-09-16T01:50:00.556Z,984
2022-09-16T01:55:00.461Z,984.3
2022-09-16T02:00:00.564Z,984
2022-09-16T02:05:00.874Z,984.3
2022-09-16T02:10:01.041Z,984.3
2022-09-16T02:15:00.880Z,984
2022-09-16T02:20:01.140Z,984.3
2022-09-16T02:25:00.807Z,984
2022-09-16T02:30:00.808Z,984
2022-09-16T02:35:01.019Z,984
2022-09-16T02:40:00.956Z,983.6
2022-09-16T02:45:01.005Z,983.8
2022-09-16T02:50:00.844Z,983.8
2022-09-16T02:55:00.845Z,984
2022-09-16T03:00:00.838Z,984
2022-09-16T03:05:00.842Z,983.8
2022-09-16T03:10:00.846Z,984
2022-09-16T03:15:00.859Z,984
2022-09-16T03:20:00.880Z,983.8
2022-09-16T03:25:00.871Z,984
2022-09-16T03:30:00.959Z,984
2022-09-16T03:35:00.874Z,983.8
2022-09-16T03:40:00.956Z,983.6
2022-09-16T03:45:00.866Z,983.6
2022-09-16T03:50:00.204Z,983.8
2022-09-16T03:55:00.195Z,984
2022-09-16T04:00:00.236Z,984
2022-09-16T04:05:00.212Z,984.5
2022-09-16T04:10:00.226Z,984
2022-09-16T04:15:01.054Z,984
2022-09-16T04:20:00.243Z,984
2022-09-16T04:25:00.255Z,984
2022-09-16T04:30:00.235Z,984
2022-09-16T04:35:00.249Z,984
2022-09-16T04:40:04.441Z,984
2022-09-16T04:45:00.258Z,984
2022-09-16T04:50:00.292Z,984
2022-09-16T04:55:00.251Z,984
2022-09-16T05:00:00.267Z,984.3
2022-09-16T05:05:00.267Z,984
2022-09-16T05:10:00.267Z,984
2022-09-16T05:15:00.262Z,984
2022-09-16T05:20:00.292Z,984
2022-09-16T05:25:00.271Z,983.8
2022-09-16T05:30:00.299Z,984
2022-09-16T05:35:00.312Z,984
2022-09-16T05:40:00.402Z,984
2022-09-16T05:45:00.295Z,984
2022-09-16T05:50:00.338Z,984
2022-09-16T05:55:00.310Z,984.3
2022-09-16T06:00:00.383Z,984.5
2022-09-16T06:05:00.299Z,984.5
2022-09-16T06:10:00.362Z,984.7
2022-09-16T06:15:00.308Z,984.5
2022-09-16T06:20:00.499Z,984.5
2022-09-16T06:25:00.339Z,984.5
2022-09-16T06:30:00.360Z,984.3
2022-09-16T06:35:00.350Z,984.3
2022-09-16T06:40:00.462Z,984.3
2022-09-16T06:45:00.355Z,984
2022-09-16T06:50:00.367Z,984
2022-09-16T06:55:00.381Z,983.8
2022-09-16T07:00:00.369Z,983.6
2022-09-16T07:05:00.374Z,983.6
2022-09-16T07:10:00.387Z,983.6
2022-09-16T07:15:00.401Z,984
2022-09-16T07:20:00.403Z,984
2022-09-16T07:25:00.407Z,984
2022-09-16T07:30:00.763Z,984.3
2022-09-16T07:35:00.432Z,984.3
2022-09-16T07:40:00.468Z,984
2022-09-16T07:45:00.417Z,984.3
2022-09-16T07:50:00.444Z,984.5
2022-09-16T07:55:00.470Z,984.5
2022-09-16T08:00:00.407Z,984
2022-09-16T08:05:00.510Z,983.6
2022-09-16T08:10:00.410Z,984
2022-09-16T08:15:00.471Z,983.6
2022-09-16T08:20:00.421Z,983.6
2022-09-16T08:25:00.463Z,983.6
2022-09-16T08:30:00.554Z,983.2
2022-09-16T08:35:00.435Z,983.2
2022-09-16T08:40:00.587Z,982.3
2022-09-16T08:45:00.461Z,982.3
2022-09-16T08:50:00.535Z,981.9
2022-09-16T08:55:00.543Z,981.4
2022-09-16T09:00:00.519Z,981.4
2022-09-16T09:05:00.606Z,981
2022-09-16T09:10:00.634Z,981.2
2022-09-16T09:15:00.607Z,979.3
2022-09-16T09:20:00.493Z,978.4
2022-09-16T09:25:00.597Z,977.1
2022-09-16T09:30:00.526Z,978.4
2022-09-16T09:35:00.539Z,980.1
2022-09-16T09:40:00.624Z,981
2022-09-16T09:45:02.339Z,980.6
2022-09-16T09:50:00.330Z,980.6
2022-09-16T09:55:00.184Z,980.8
2022-09-16T10:00:00.142Z,980.4
2022-09-16T10:05:00.166Z,980.6
2022-09-16T10:10:00.228Z,979.3
2022-09-16T10:15:00.141Z,979.7
2022-09-16T10:20:00.469Z,979.3
2022-09-16T10:25:00.243Z,978.4
2022-09-16T10:30:00.410Z,978
2022-09-16T10:35:00.168Z,976.7
2022-09-16T10:40:00.544Z,975.6
2022-09-16T10:45:00.187Z,974.5
2022-09-16T10:50:00.179Z,974.9
2022-09-16T10:55:00.699Z,974
2022-09-16T11:00:00.853Z,973.4
2022-09-16T11:05:00.198Z,972.5
2022-09-16T11:10:00.246Z,972.5
2022-09-16T11:15:00.225Z,972.3
2022-09-16T11:20:01.019Z,973.6
2022-09-16T11:25:00.395Z,974.3
2022-09-16T11:30:00.996Z,974.9
2022-09-16T11:35:00.225Z,972.7
2022-09-16T11:40:00.342Z,973.4
2022-09-16T11:45:00.252Z,973.8
2022-09-16T11:50:00.233Z,972.7
2022-09-16T11:55:00.599Z,974.3
2022-09-16T12:00:00.278Z,974
2022-09-16T12:05:01.016Z,974.7
2022-09-16T12:10:00.279Z,974
2022-09-16T12:15:04.837Z,975.1
2022-09-16T12:20:00.455Z,973.6
2022-09-16T12:25:00.860Z,974
2022-09-16T12:30:00.321Z,972.3
2022-09-16T12:35:00.298Z,971.9
2022-09-16T12:40:00.404Z,971.7
2022-09-16T12:45:00.454Z,969.3
2022-09-16T12:50:00.335Z,968.2
2022-09-16T12:55:08.497Z,969
2022-09-16T13:00:00.350Z,970.1
2022-09-16T13:05:00.368Z,968
2022-09-16T13:10:00.358Z,966.9
2022-09-16T13:15:00.868Z,965.8
2022-09-16T13:20:00.401Z,965.8
2022-09-16T13:25:04.634Z,967.1
2022-09-16T13:30:00.754Z,964.9
2022-09-16T13:35:00.461Z,963.4
2022-09-16T13:40:00.784Z,964.5
2022-09-16T13:45:00.361Z,965.4
2022-09-16T13:50:00.724Z,966.4
2022-09-16T14:00:00.483Z,968.8
2022-09-16T14:05:00.378Z,968
2022-09-16T14:10:00.767Z,969.3
2022-09-16T14:15:00.437Z,969.9
2022-09-16T14:20:00.434Z,971
2022-09-16T14:25:06.308Z,971.9
2022-09-16T14:30:00.397Z,971.9
2022-09-16T14:35:00.447Z,971.9
2022-09-16T14:40:00.707Z,971.4
2022-09-16T14:45:00.574Z,970.8
2022-09-16T14:50:00.459Z,970.1
2022-09-16T14:55:00.441Z,970.1
2022-09-16T15:00:00.449Z,970.1
2022-09-16T15:05:00.556Z,971.2
2022-09-16T15:10:00.438Z,971.7
2022-09-16T15:15:00.541Z,970.6
2022-09-16T15:20:00.463Z,970.6
2022-09-16T15:25:00.536Z,969.7
2022-09-16T15:30:00.578Z,969.7
2022-09-16T15:35:00.553Z,968.8
2022-09-16T15:40:00.759Z,969
2022-09-16T15:45:00.571Z,969.7
2022-09-16T15:50:00.668Z,970.6
2022-09-16T15:55:00.257Z,969.7
2022-09-16T16:00:00.384Z,969.3
2022-09-16T16:05:00.125Z,970.6
2022-09-16T16:10:00.193Z,971.4
2022-09-16T16:15:00.249Z,971.2
2022-09-16T16:20:00.139Z,971.9
2022-09-16T16:25:00.279Z,972.3
2022-09-16T16:30:00.180Z,973.2
2022-09-16T16:35:00.158Z,973
2022-09-16T16:40:00.344Z,973.8
2022-09-16T16:45:00.171Z,974
2022-09-16T16:50:00.316Z,974
2022-09-16T16:55:00.258Z,974.5
2022-09-16T17:00:00.362Z,974.7
2022-09-16T17:05:00.268Z,974.3
2022-09-16T17:10:00.193Z,974.9
2022-09-16T17:15:00.623Z,974.9
2022-09-16T17:20:00.625Z,975.1
2022-09-16T17:25:00.217Z,975.4
2022-09-16T17:30:00.340Z,975.8
2022-09-16T17:35:00.238Z,975.4
2022-09-16T17:40:00.285Z,975.8
2022-09-16T17:45:00.240Z,976.2
2022-09-16T17:50:00.239Z,976.2
2022-09-16T17:55:00.247Z,976.9
2022-09-16T18:00:00.273Z,976.9
2022-09-16T18:05:00.361Z,977.3
2022-09-16T18:10:00.269Z,977.5
2022-09-16T18:15:00.293Z,977.5
2022-09-16T18:20:04.973Z,978
2022-09-16T18:25:00.297Z,978
2022-09-16T18:30:00.765Z,978.4
2022-09-16T18:35:00.280Z,978.2
2022-09-16T18:40:00.372Z,978.4
2022-09-16T18:45:00.286Z,978.4
2022-09-16T18:50:00.321Z,978.6
2022-09-16T18:55:00.307Z,979.3
2022-09-16T19:00:00.316Z,978.8
2022-09-16T19:05:00.305Z,978.8
2022-09-16T19:10:00.324Z,976.7
2022-09-16T19:15:00.311Z,976.7
2022-09-16T19:20:00.352Z,977.3
2022-09-16T19:25:01.541Z,977.1
2022-09-16T19:30:00.333Z,975.8
2022-09-16T19:35:00.328Z,975.4
2022-09-16T19:40:00.405Z,974.5
2022-09-16T19:45:00.348Z,975.1
2022-09-16T19:50:00.371Z,974.5
2022-09-16T19:55:00.369Z,976
2022-09-16T20:00:00.380Z,976.4
2022-09-16T20:05:00.359Z,976.7
2022-09-16T20:10:00.402Z,977.1
2022-09-16T20:15:00.370Z,977.5
2022-09-16T20:20:00.384Z,977.3
2022-09-16T20:25:21.315Z,977.7
2022-09-16T20:30:00.398Z,977.7
2022-09-16T20:35:00.396Z,977.1
2022-09-16T20:40:00.446Z,977.1
2022-09-16T20:45:00.400Z,978
2022-09-16T20:50:00.404Z,978
2022-09-16T20:55:00.466Z,978.2
2022-09-16T21:00:00.418Z,978
2022-09-16T21:05:00.420Z,978
2022-09-16T21:10:00.472Z,978.4
2022-09-16T21:15:00.442Z,978.8
2022-09-16T21:20:00.439Z,978.6
2022-09-16T21:25:00.459Z,979
2022-09-16T21:30:00.500Z,979.3
2022-09-16T21:35:00.593Z,979.3
2022-09-16T21:40:00.509Z,979.5
2022-09-16T21:45:00.452Z,979.7
2022-09-16T21:50:00.294Z,979.7
2022-09-16T21:55:00.146Z,979.9
2022-09-16T22:00:00.358Z,979.9
2022-09-16T22:05:00.143Z,979.7
2022-09-16T22:10:00.141Z,979.3
2022-09-16T22:15:00.139Z,979.3
2022-09-16T22:20:00.156Z,979.3
2022-09-16T22:25:00.149Z,979.7
2022-09-16T22:30:00.182Z,979.7
2022-09-16T22:35:00.166Z,979.5
2022-09-16T22:40:00.245Z,979.7
2022-09-16T22:45:00.374Z,979.7
2022-09-16T22:50:00.197Z,979.7
2022-09-16T22:55:00.214Z,979.5
2022-09-16T23:00:00.234Z,979.7
2022-09-16T23:05:00.308Z,979.7
2022-09-16T23:10:00.317Z,979.9
2022-09-16T23:15:00.294Z,979
2022-09-16T23:20:00.306Z,979.5
2022-09-16T23:25:00.313Z,979.5
2022-09-16T23:30:00.257Z,980.1
2022-09-16T23:35:00.229Z,979.7
2022-09-16T23:40:00.323Z,979.7
2022-09-16T23:45:00.248Z,979.5
2022-09-16T23:50:00.295Z,979.5
2022-09-16T23:55:00.293Z,979.9
